sensor_id;sensor_type;location;lat;lon;timestamp;P1;durP1;ratioP1;P2;durP2;ratioP2
22476;SDS011;65006;51.698;-0.292;2023-04-24T00:00:56;29.83;;;15.02;;
22476;SDS011;65006;51.698;-0.292;2023-04-24T00:03:23;26.95;;;15.07;;
22476;SDS011;65006;51.698;-0.292;2023-04-24T00:05:50;27.70;;;13.98;;
22476;SDS011;65006;51.698;-0.292;2023-04-24T00:08:17;31.38;;;14.60;;
22476;SDS011;65006;51.698;-0.292;2023-04-24T00:10:43;27.05;;;13.18;;
22476;SDS011;65006;51.698;-0.292;2023-04-24T00:13:09;28.73;;;14.25;;
22476;SDS011;65006;51.698;-0.292;2023-04-24T00:15:35;28.88;;;14.07;;
22476;SDS011;65006;51.698;-0.292;2023-04-24T00:18:01;29.48;;;13.85;;
22476;SDS011;65006;51.698;-0.292;2023-04-24T00:20:27;23.92;;;13.52;;
22476;SDS011;65006;51.698;-0.292;2023-04-24T00:23:00;26.88;;;13.00;;
22476;SDS011;65006;51.698;-0.292;2023-04-24T00:25:26;24.30;;;12.95;;
22476;SDS011;65006;51.698;-0.292;2023-04-24T00:27:52;22.98;;;11.70;;
22476;SDS011;65006;51.698;-0.292;2023-04-24T00:30:18;25.60;;;13.75;;
22476;SDS011;65006;51.698;-0.292;2023-04-24T00:32:44;24.30;;;13.23;;
22476;SDS011;65006;51.698;-0.292;2023-04-24T00:35:11;22.80;;;12.55;;
22476;SDS011;65006;51.698;-0.292;2023-04-24T00:37:37;21.58;;;12.40;;
22476;SDS011;65006;51.698;-0.292;2023-04-24T00:40:04;19.83;;;11.25;;
22476;SDS011;65006;51.698;-0.292;2023-04-24T00:42:31;18.88;;;10.43;;
22476;SDS011;65006;51.698;-0.292;2023-04-24T00:44:57;20.25;;;11.63;;
22476;SDS011;65006;51.698;-0.292;2023-04-24T00:47:23;20.58;;;11.32;;
22476;SDS011;65006;51.698;-0.292;2023-04-24T00:49:49;26.92;;;11.90;;
22476;SDS011;65006;51.698;-0.292;2023-04-24T00:52:15;22.27;;;11.20;;
22476;SDS011;65006;51.698;-0.292;2023-04-24T00:54:43;28.02;;;11.30;;
22476;SDS011;65006;51.698;-0.292;2023-04-24T00:57:10;25.38;;;12.05;;
22476;SDS011;65006;51.698;-0.292;2023-04-24T00:59:36;21.33;;;11.52;;
22476;SDS011;65006;51.698;-0.292;2023-04-24T01:02:02;19.98;;;10.70;;
22476;SDS011;65006;51.698;-0.292;2023-04-24T01:04:28;23.67;;;10.50;;
22476;SDS011;65006;51.698;-0.292;2023-04-24T01:06:54;20.45;;;11.43;;
22476;SDS011;65006;51.698;-0.292;2023-04-24T01:09:21;19.77;;;10.30;;
22476;SDS011;65006;51.698;-0.292;2023-04-24T01:11:48;20.42;;;11.27;;
22476;SDS011;65006;51.698;-0.292;2023-04-24T01:14:15;22.70;;;10.85;;
22476;SDS011;65006;51.698;-0.292;2023-04-24T01:16:41;21.52;;;11.55;;
22476;SDS011;65006;51.698;-0.292;2023-04-24T01:19:07;23.50;;;11.75;;
22476;SDS011;65006;51.698;-0.292;2023-04-24T01:21:36;20.85;;;11.55;;
22476;SDS011;65006;51.698;-0.292;2023-04-24T01:24:03;23.90;;;11.73;;
22476;SDS011;65006;51.698;-0.292;2023-04-24T01:28:56;20.70;;;10.80;;
22476;SDS011;65006;51.698;-0.292;2023-04-24T01:31:22;25.50;;;12.32;;
22476;SDS011;65006;51.698;-0.292;2023-04-24T01:33:49;20.55;;;11.77;;
22476;SDS011;65006;51.698;-0.292;2023-04-24T01:36:15;23.58;;;12.18;;
22476;SDS011;65006;51.698;-0.292;2023-04-24T01:38:42;24.48;;;13.15;;
22476;SDS011;65006;51.698;-0.292;2023-04-24T01:41:08;22.77;;;11.52;;
22476;SDS011;65006;51.698;-0.292;2023-04-24T01:43:34;29.35;;;12.43;;
22476;SDS011;65006;51.698;-0.292;2023-04-24T01:46:00;26.17;;;12.15;;
22476;SDS011;65006;51.698;-0.292;2023-04-24T01:48:26;20.88;;;11.88;;
22476;SDS011;65006;51.698;-0.292;2023-04-24T01:50:52;23.95;;;12.23;;
22476;SDS011;65006;51.698;-0.292;2023-04-24T01:53:18;22.33;;;12.05;;
22476;SDS011;65006;51.698;-0.292;2023-04-24T01:55:45;22.73;;;12.57;;
22476;SDS011;65006;51.698;-0.292;2023-04-24T01:58:11;22.48;;;12.43;;
22476;SDS011;65006;51.698;-0.292;2023-04-24T02:00:37;27.27;;;13.27;;
22476;SDS011;65006;51.698;-0.292;2023-04-24T02:03:03;22.25;;;11.98;;
22476;SDS011;65006;51.698;-0.292;2023-04-24T02:05:29;23.70;;;12.43;;
22476;SDS011;65006;51.698;-0.292;2023-04-24T02:07:55;24.27;;;13.07;;
22476;SDS011;65006;51.698;-0.292;2023-04-24T02:10:21;24.00;;;13.07;;
22476;SDS011;65006;51.698;-0.292;2023-04-24T02:12:47;25.20;;;12.48;;
22476;SDS011;65006;51.698;-0.292;2023-04-24T02:15:13;20.95;;;11.63;;
22476;SDS011;65006;51.698;-0.292;2023-04-24T02:17:40;21.75;;;12.23;;
22476;SDS011;65006;51.698;-0.292;2023-04-24T02:20:06;20.95;;;11.15;;
22476;SDS011;65006;51.698;-0.292;2023-04-24T02:22:32;21.88;;;11.30;;
22476;SDS011;65006;51.698;-0.292;2023-04-24T02:24:58;22.85;;;12.32;;
22476;SDS011;65006;51.698;-0.292;2023-04-24T02:27:25;23.30;;;11.95;;
22476;SDS011;65006;51.698;-0.292;2023-04-24T02:29:51;20.05;;;11.05;;
22476;SDS011;65006;51.698;-0.292;2023-04-24T02:32:17;20.20;;;10.68;;
22476;SDS011;65006;51.698;-0.292;2023-04-24T02:34:43;19.42;;;10.85;;
22476;SDS011;65006;51.698;-0.292;2023-04-24T02:37:09;18.08;;;10.38;;
22476;SDS011;65006;51.698;-0.292;2023-04-24T02:39:37;17.58;;;10.68;;
22476;SDS011;65006;51.698;-0.292;2023-04-24T02:42:03;18.33;;;10.50;;
22476;SDS011;65006;51.698;-0.292;2023-04-24T02:44:29;20.33;;;9.98;;
22476;SDS011;65006;51.698;-0.292;2023-04-24T02:46:55;18.40;;;7.63;;
22476;SDS011;65006;51.698;-0.292;2023-04-24T02:49:21;17.67;;;7.07;;
22476;SDS011;65006;51.698;-0.292;2023-04-24T02:51:47;18.13;;;6.03;;
22476;SDS011;65006;51.698;-0.292;2023-04-24T02:54:13;16.15;;;6.72;;
22476;SDS011;65006;51.698;-0.292;2023-04-24T02:56:39;13.27;;;5.95;;
22476;SDS011;65006;51.698;-0.292;2023-04-24T02:59:05;12.05;;;5.75;;
22476;SDS011;65006;51.698;-0.292;2023-04-24T03:06:33;15.60;;;5.80;;
22476;SDS011;65006;51.698;-0.292;2023-04-24T03:09:00;14.05;;;5.93;;
22476;SDS011;65006;51.698;-0.292;2023-04-24T03:11:26;14.90;;;5.63;;
22476;SDS011;65006;51.698;-0.292;2023-04-24T03:13:52;13.40;;;5.63;;
22476;SDS011;65006;51.698;-0.292;2023-04-24T03:16:18;10.85;;;5.93;;
22476;SDS011;65006;51.698;-0.292;2023-04-24T03:18:44;14.50;;;6.22;;
22476;SDS011;65006;51.698;-0.292;2023-04-24T03:21:11;13.75;;;6.07;;
22476;SDS011;65006;51.698;-0.292;2023-04-24T03:23:37;14.27;;;6.03;;
22476;SDS011;65006;51.698;-0.292;2023-04-24T03:26:03;14.25;;;6.57;;
22476;SDS011;65006;51.698;-0.292;2023-04-24T03:28:29;16.30;;;6.18;;
22476;SDS011;65006;51.698;-0.292;2023-04-24T03:30:55;19.33;;;6.25;;
22476;SDS011;65006;51.698;-0.292;2023-04-24T03:33:21;19.80;;;7.05;;
22476;SDS011;65006;51.698;-0.292;2023-04-24T03:35:47;14.98;;;6.22;;
22476;SDS011;65006;51.698;-0.292;2023-04-24T03:38:13;15.60;;;6.07;;
22476;SDS011;65006;51.698;-0.292;2023-04-24T03:40:39;15.30;;;6.75;;
22476;SDS011;65006;51.698;-0.292;2023-04-24T03:43:05;18.23;;;6.43;;
22476;SDS011;65006;51.698;-0.292;2023-04-24T03:45:31;12.57;;;6.25;;
22476;SDS011;65006;51.698;-0.292;2023-04-24T03:47:57;13.82;;;5.88;;
22476;SDS011;65006;51.698;-0.292;2023-04-24T03:50:23;12.80;;;6.15;;
22476;SDS011;65006;51.698;-0.292;2023-04-24T03:52:49;12.75;;;5.93;;
22476;SDS011;65006;51.698;-0.292;2023-04-24T03:55:15;16.02;;;6.13;;
22476;SDS011;65006;51.698;-0.292;2023-04-24T03:57:41;12.85;;;5.63;;
22476;SDS011;65006;51.698;-0.292;2023-04-24T04:00:07;10.05;;;5.80;;
22476;SDS011;65006;51.698;-0.292;2023-04-24T04:04:59;18.15;;;6.65;;
22476;SDS011;65006;51.698;-0.292;2023-04-24T04:07:25;14.02;;;5.90;;
22476;SDS011;65006;51.698;-0.292;2023-04-24T04:09:51;12.40;;;5.93;;
22476;SDS011;65006;51.698;-0.292;2023-04-24T04:12:17;12.90;;;5.75;;
22476;SDS011;65006;51.698;-0.292;2023-04-24T04:14:43;13.75;;;5.57;;
22476;SDS011;65006;51.698;-0.292;2023-04-24T04:17:09;8.85;;;4.88;;
22476;SDS011;65006;51.698;-0.292;2023-04-24T04:19:35;15.57;;;4.68;;
22476;SDS011;65006;51.698;-0.292;2023-04-24T04:22:02;12.43;;;4.35;;
22476;SDS011;65006;51.698;-0.292;2023-04-24T04:24:28;10.85;;;4.97;;
22476;SDS011;65006;51.698;-0.292;2023-04-24T04:26:54;15.35;;;5.07;;
22476;SDS011;65006;51.698;-0.292;2023-04-24T04:29:23;9.30;;;4.03;;
22476;SDS011;65006;51.698;-0.292;2023-04-24T04:31:49;12.30;;;4.28;;
22476;SDS011;65006;51.698;-0.292;2023-04-24T04:34:15;10.90;;;3.97;;
22476;SDS011;65006;51.698;-0.292;2023-04-24T04:36:41;11.63;;;3.95;;
22476;SDS011;65006;51.698;-0.292;2023-04-24T04:41:33;12.02;;;4.15;;
22476;SDS011;65006;51.698;-0.292;2023-04-24T04:44:00;10.35;;;4.30;;
22476;SDS011;65006;51.698;-0.292;2023-04-24T04:46:26;10.18;;;3.88;;
22476;SDS011;65006;51.698;-0.292;2023-04-24T04:48:52;11.18;;;4.13;;
22476;SDS011;65006;51.698;-0.292;2023-04-24T04:53:45;12.93;;;4.03;;
22476;SDS011;65006;51.698;-0.292;2023-04-24T04:56:11;10.82;;;4.28;;
22476;SDS011;65006;51.698;-0.292;2023-04-24T04:58:37;12.50;;;4.75;;
22476;SDS011;65006;51.698;-0.292;2023-04-24T05:01:03;12.00;;;4.55;;
22476;SDS011;65006;51.698;-0.292;2023-04-24T05:03:29;9.82;;;4.32;;
22476;SDS011;65006;51.698;-0.292;2023-04-24T05:05:55;16.13;;;4.47;;
22476;SDS011;65006;51.698;-0.292;2023-04-24T05:08:21;14.15;;;4.35;;
22476;SDS011;65006;51.698;-0.292;2023-04-24T05:10:47;8.57;;;4.60;;
22476;SDS011;65006;51.698;-0.292;2023-04-24T05:13:13;12.88;;;4.88;;
22476;SDS011;65006;51.698;-0.292;2023-04-24T05:15:39;9.65;;;3.92;;
22476;SDS011;65006;51.698;-0.292;2023-04-24T05:18:06;5.10;;;2.97;;
22476;SDS011;65006;51.698;-0.292;2023-04-24T05:20:31;11.25;;;3.40;;
22476;SDS011;65006;51.698;-0.292;2023-04-24T05:22:57;10.32;;;3.53;;
22476;SDS011;65006;51.698;-0.292;2023-04-24T05:25:23;5.10;;;2.60;;
22476;SDS011;65006;51.698;-0.292;2023-04-24T05:27:49;12.77;;;3.03;;
22476;SDS011;65006;51.698;-0.292;2023-04-24T05:30:15;8.75;;;2.83;;
22476;SDS011;65006;51.698;-0.292;2023-04-24T05:32:41;8.73;;;2.83;;
22476;SDS011;65006;51.698;-0.292;2023-04-24T05:35:07;6.82;;;3.13;;
22476;SDS011;65006;51.698;-0.292;2023-04-24T05:37:33;9.18;;;3.33;;
22476;SDS011;65006;51.698;-0.292;2023-04-24T05:39:59;9.13;;;2.53;;
22476;SDS011;65006;51.698;-0.292;2023-04-24T05:42:25;8.98;;;3.25;;
22476;SDS011;65006;51.698;-0.292;2023-04-24T05:44:51;8.60;;;2.58;;
22476;SDS011;65006;51.698;-0.292;2023-04-24T05:47:19;4.97;;;2.75;;
22476;SDS011;65006;51.698;-0.292;2023-04-24T05:49:46;9.93;;;3.20;;
22476;SDS011;65006;51.698;-0.292;2023-04-24T05:52:13;10.95;;;2.75;;
22476;SDS011;65006;51.698;-0.292;2023-04-24T05:54:39;6.25;;;2.40;;
22476;SDS011;65006;51.698;-0.292;2023-04-24T05:57:05;6.78;;;2.22;;
22476;SDS011;65006;51.698;-0.292;2023-04-24T05:59:36;9.73;;;3.33;;
22476;SDS011;65006;51.698;-0.292;2023-04-24T06:02:05;4.45;;;2.08;;
22476;SDS011;65006;51.698;-0.292;2023-04-24T06:04:31;6.55;;;2.72;;
22476;SDS011;65006;51.698;-0.292;2023-04-24T06:06:58;9.32;;;2.38;;
22476;SDS011;65006;51.698;-0.292;2023-04-24T06:09:24;8.30;;;2.03;;
22476;SDS011;65006;51.698;-0.292;2023-04-24T06:11:50;11.95;;;3.10;;
22476;SDS011;65006;51.698;-0.292;2023-04-24T06:14:21;4.40;;;2.10;;
22476;SDS011;65006;51.698;-0.292;2023-04-24T06:16:47;6.55;;;2.28;;
22476;SDS011;65006;51.698;-0.292;2023-04-24T06:19:13;6.50;;;3.22;;
22476;SDS011;65006;51.698;-0.292;2023-04-24T06:21:39;11.43;;;2.08;;
22476;SDS011;65006;51.698;-0.292;2023-04-24T06:24:05;6.65;;;1.95;;
22476;SDS011;65006;51.698;-0.292;2023-04-24T06:26:31;8.05;;;2.00;;
22476;SDS011;65006;51.698;-0.292;2023-04-24T06:28:57;3.95;;;1.90;;
22476;SDS011;65006;51.698;-0.292;2023-04-24T06:31:25;6.05;;;1.67;;
22476;SDS011;65006;51.698;-0.292;2023-04-24T06:33:51;7.13;;;1.90;;
22476;SDS011;65006;51.698;-0.292;2023-04-24T06:36:17;3.65;;;1.52;;
22476;SDS011;65006;51.698;-0.292;2023-04-24T06:38:43;8.45;;;1.70;;
22476;SDS011;65006;51.698;-0.292;2023-04-24T06:41:10;7.07;;;1.60;;
22476;SDS011;65006;51.698;-0.292;2023-04-24T06:43:36;9.05;;;1.52;;
22476;SDS011;65006;51.698;-0.292;2023-04-24T06:46:02;5.63;;;1.60;;
22476;SDS011;65006;51.698;-0.292;2023-04-24T06:48:28;5.35;;;1.42;;
22476;SDS011;65006;51.698;-0.292;2023-04-24T06:50:54;7.22;;;1.80;;
22476;SDS011;65006;51.698;-0.292;2023-04-24T06:53:20;4.47;;;1.48;;
22476;SDS011;65006;51.698;-0.292;2023-04-24T06:55:46;5.30;;;2.28;;
22476;SDS011;65006;51.698;-0.292;2023-04-24T07:00:40;5.68;;;1.40;;
22476;SDS011;65006;51.698;-0.292;2023-04-24T07:03:06;4.25;;;1.98;;
22476;SDS011;65006;51.698;-0.292;2023-04-24T07:05:32;9.00;;;1.73;;
22476;SDS011;65006;51.698;-0.292;2023-04-24T07:08:00;6.07;;;1.70;;
22476;SDS011;65006;51.698;-0.292;2023-04-24T07:10:26;9.90;;;2.00;;
22476;SDS011;65006;51.698;-0.292;2023-04-24T07:12:53;3.92;;;1.30;;
22476;SDS011;65006;51.698;-0.292;2023-04-24T07:15:19;7.30;;;1.05;;
22476;SDS011;65006;51.698;-0.292;2023-04-24T07:17:45;5.63;;;1.25;;
22476;SDS011;65006;51.698;-0.292;2023-04-24T07:20:11;4.60;;;1.30;;
22476;SDS011;65006;51.698;-0.292;2023-04-24T07:22:39;5.50;;;1.40;;
22476;SDS011;65006;51.698;-0.292;2023-04-24T07:25:05;3.65;;;1.27;;
22476;SDS011;65006;51.698;-0.292;2023-04-24T07:27:31;9.10;;;1.40;;
22476;SDS011;65006;51.698;-0.292;2023-04-24T07:29:58;3.00;;;1.15;;
22476;SDS011;65006;51.698;-0.292;2023-04-24T07:32:23;4.22;;;1.17;;
22476;SDS011;65006;51.698;-0.292;2023-04-24T07:34:50;6.90;;;1.00;;
22476;SDS011;65006;51.698;-0.292;2023-04-24T07:37:16;4.20;;;1.25;;
22476;SDS011;65006;51.698;-0.292;2023-04-24T07:39:42;4.13;;;1.13;;
22476;SDS011;65006;51.698;-0.292;2023-04-24T07:42:08;4.32;;;0.98;;
22476;SDS011;65006;51.698;-0.292;2023-04-24T07:44:35;3.22;;;1.30;;
22476;SDS011;65006;51.698;-0.292;2023-04-24T07:47:01;5.78;;;1.23;;
22476;SDS011;65006;51.698;-0.292;2023-04-24T07:49:27;6.63;;;1.50;;
22476;SDS011;65006;51.698;-0.292;2023-04-24T07:51:54;2.83;;;1.20;;
22476;SDS011;65006;51.698;-0.292;2023-04-24T07:54:20;5.55;;;1.50;;
22476;SDS011;65006;51.698;-0.292;2023-04-24T07:56:46;4.07;;;1.10;;
22476;SDS011;65006;51.698;-0.292;2023-04-24T07:59:12;6.32;;;1.10;;
22476;SDS011;65006;51.698;-0.292;2023-04-24T08:01:38;6.30;;;1.27;;
22476;SDS011;65006;51.698;-0.292;2023-04-24T08:04:04;4.97;;;1.00;;
22476;SDS011;65006;51.698;-0.292;2023-04-24T08:06:30;8.27;;;1.02;;
22476;SDS011;65006;51.698;-0.292;2023-04-24T08:08:56;3.50;;;1.25;;
22476;SDS011;65006;51.698;-0.292;2023-04-24T08:11:22;8.02;;;1.25;;
22476;SDS011;65006;51.698;-0.292;2023-04-24T08:13:48;4.45;;;1.52;;
22476;SDS011;65006;51.698;-0.292;2023-04-24T08:16:15;2.05;;;0.90;;
22476;SDS011;65006;51.698;-0.292;2023-04-24T08:18:41;5.35;;;1.10;;
22476;SDS011;65006;51.698;-0.292;2023-04-24T08:21:07;3.28;;;1.10;;
22476;SDS011;65006;51.698;-0.292;2023-04-24T08:23:33;7.85;;;1.20;;
22476;SDS011;65006;51.698;-0.292;2023-04-24T08:25:59;6.40;;;1.10;;
22476;SDS011;65006;51.698;-0.292;2023-04-24T08:28:25;3.58;;;0.93;;
22476;SDS011;65006;51.698;-0.292;2023-04-24T08:30:51;9.65;;;1.13;;
22476;SDS011;65006;51.698;-0.292;2023-04-24T08:33:19;4.43;;;1.10;;
22476;SDS011;65006;51.698;-0.292;2023-04-24T08:35:46;2.97;;;1.20;;
22476;SDS011;65006;51.698;-0.292;2023-04-24T08:38:12;3.63;;;1.35;;
22476;SDS011;65006;51.698;-0.292;2023-04-24T08:40:38;6.25;;;1.10;;
22476;SDS011;65006;51.698;-0.292;2023-04-24T08:43:04;2.47;;;0.85;;
22476;SDS011;65006;51.698;-0.292;2023-04-24T08:45:31;5.00;;;1.02;;
22476;SDS011;65006;51.698;-0.292;2023-04-24T08:47:58;5.85;;;0.98;;
22476;SDS011;65006;51.698;-0.292;2023-04-24T08:50:25;5.57;;;1.02;;
22476;SDS011;65006;51.698;-0.292;2023-04-24T08:52:51;5.60;;;1.55;;
22476;SDS011;65006;51.698;-0.292;2023-04-24T08:55:19;4.10;;;1.00;;
22476;SDS011;65006;51.698;-0.292;2023-04-24T08:57:46;4.57;;;1.10;;
22476;SDS011;65006;51.698;-0.292;2023-04-24T09:00:15;2.30;;;0.82;;
22476;SDS011;65006;51.698;-0.292;2023-04-24T09:02:42;5.78;;;1.08;;
22476;SDS011;65006;51.698;-0.292;2023-04-24T09:05:08;4.85;;;1.05;;
22476;SDS011;65006;51.698;-0.292;2023-04-24T09:07:36;5.50;;;1.08;;
22476;SDS011;65006;51.698;-0.292;2023-04-24T09:10:04;2.40;;;1.00;;
22476;SDS011;65006;51.698;-0.292;2023-04-24T09:12:30;4.45;;;1.27;;
22476;SDS011;65006;51.698;-0.292;2023-04-24T09:14:56;3.47;;;1.00;;
22476;SDS011;65006;51.698;-0.292;2023-04-24T09:17:23;7.32;;;0.95;;
22476;SDS011;65006;51.698;-0.292;2023-04-24T09:19:51;3.38;;;0.90;;
22476;SDS011;65006;51.698;-0.292;2023-04-24T09:22:17;4.88;;;1.27;;
22476;SDS011;65006;51.698;-0.292;2023-04-24T09:24:44;2.83;;;0.90;;
22476;SDS011;65006;51.698;-0.292;2023-04-24T09:27:11;8.25;;;1.00;;
22476;SDS011;65006;51.698;-0.292;2023-04-24T09:29:37;5.22;;;1.20;;
22476;SDS011;65006;51.698;-0.292;2023-04-24T09:32:19;4.22;;;1.10;;
22476;SDS011;65006;51.698;-0.292;2023-04-24T09:35:04;5.05;;;1.10;;
22476;SDS011;65006;51.698;-0.292;2023-04-24T09:37:34;6.88;;;1.13;;
22476;SDS011;65006;51.698;-0.292;2023-04-24T09:42:38;4.80;;;1.30;;
22476;SDS011;65006;51.698;-0.292;2023-04-24T09:45:08;4.82;;;1.17;;
22476;SDS011;65006;51.698;-0.292;2023-04-24T09:47:36;3.38;;;1.10;;
22476;SDS011;65006;51.698;-0.292;2023-04-24T09:50:09;4.47;;;1.20;;
22476;SDS011;65006;51.698;-0.292;2023-04-24T09:52:35;4.10;;;1.45;;
22476;SDS011;65006;51.698;-0.292;2023-04-24T09:55:01;4.57;;;1.15;;
22476;SDS011;65006;51.698;-0.292;2023-04-24T09:57:27;7.13;;;1.55;;
22476;SDS011;65006;51.698;-0.292;2023-04-24T09:59:53;3.65;;;1.25;;
22476;SDS011;65006;51.698;-0.292;2023-04-24T10:02:19;4.68;;;1.17;;
22476;SDS011;65006;51.698;-0.292;2023-04-24T10:04:55;5.95;;;1.85;;
22476;SDS011;65006;51.698;-0.292;2023-04-24T10:07:25;3.72;;;1.40;;
22476;SDS011;65006;51.698;-0.292;2023-04-24T10:09:51;5.28;;;1.10;;
22476;SDS011;65006;51.698;-0.292;2023-04-24T10:12:17;4.57;;;1.45;;
22476;SDS011;65006;51.698;-0.292;2023-04-24T10:14:44;3.30;;;1.20;;
22476;SDS011;65006;51.698;-0.292;2023-04-24T10:19:36;3.58;;;1.27;;
22476;SDS011;65006;51.698;-0.292;2023-04-24T10:22:02;4.13;;;1.33;;
22476;SDS011;65006;51.698;-0.292;2023-04-24T10:24:29;5.00;;;2.20;;
22476;SDS011;65006;51.698;-0.292;2023-04-24T10:26:55;7.25;;;2.17;;
22476;SDS011;65006;51.698;-0.292;2023-04-24T10:29:21;4.28;;;2.67;;
22476;SDS011;65006;51.698;-0.292;2023-04-24T10:31:48;7.82;;;2.50;;
22476;SDS011;65006;51.698;-0.292;2023-04-24T10:34:14;5.88;;;3.08;;
22476;SDS011;65006;51.698;-0.292;2023-04-24T10:39:07;8.25;;;2.72;;
22476;SDS011;65006;51.698;-0.292;2023-04-24T10:41:36;4.03;;;2.38;;
22476;SDS011;65006;51.698;-0.292;2023-04-24T10:44:06;5.57;;;2.95;;
22476;SDS011;65006;51.698;-0.292;2023-04-24T10:46:33;11.23;;;2.97;;
22476;SDS011;65006;51.698;-0.292;2023-04-24T10:48:59;6.05;;;3.08;;
22476;SDS011;65006;51.698;-0.292;2023-04-24T10:54:33;6.25;;;2.47;;
22476;SDS011;65006;51.698;-0.292;2023-04-24T11:02:16;3.03;;;1.10;;
22476;SDS011;65006;51.698;-0.292;2023-04-24T11:04:43;2.00;;;1.10;;
22476;SDS011;65006;51.698;-0.292;2023-04-24T11:07:10;5.90;;;1.13;;
22476;SDS011;65006;51.698;-0.292;2023-04-24T11:09:36;2.15;;;1.23;;
22476;SDS011;65006;51.698;-0.292;2023-04-24T11:12:11;3.25;;;1.08;;
22476;SDS011;65006;51.698;-0.292;2023-04-24T11:17:34;4.65;;;1.48;;
22476;SDS011;65006;51.698;-0.292;2023-04-24T11:20:06;5.40;;;1.48;;
22476;SDS011;65006;51.698;-0.292;2023-04-24T11:22:33;3.63;;;1.08;;
22476;SDS011;65006;51.698;-0.292;2023-04-24T11:25:02;4.15;;;1.33;;
22476;SDS011;65006;51.698;-0.292;2023-04-24T11:32:25;5.28;;;1.25;;
22476;SDS011;65006;51.698;-0.292;2023-04-24T11:34:53;5.38;;;1.40;;
22476;SDS011;65006;51.698;-0.292;2023-04-24T11:37:19;3.13;;;1.20;;
22476;SDS011;65006;51.698;-0.292;2023-04-24T11:39:45;4.70;;;1.30;;
22476;SDS011;65006;51.698;-0.292;2023-04-24T11:42:13;4.95;;;1.30;;
22476;SDS011;65006;51.698;-0.292;2023-04-24T11:44:40;3.63;;;1.50;;
22476;SDS011;65006;51.698;-0.292;2023-04-24T11:47:06;5.38;;;1.60;;
22476;SDS011;65006;51.698;-0.292;2023-04-24T11:51:59;4.63;;;1.50;;
22476;SDS011;65006;51.698;-0.292;2023-04-24T11:54:26;3.92;;;1.50;;
22476;SDS011;65006;51.698;-0.292;2023-04-24T11:56:52;4.28;;;1.25;;
22476;SDS011;65006;51.698;-0.292;2023-04-24T11:59:18;7.13;;;1.50;;
22476;SDS011;65006;51.698;-0.292;2023-04-24T12:01:48;5.20;;;1.20;;
22476;SDS011;65006;51.698;-0.292;2023-04-24T12:04:15;4.95;;;1.60;;
22476;SDS011;65006;51.698;-0.292;2023-04-24T12:09:26;2.92;;;1.48;;
22476;SDS011;65006;51.698;-0.292;2023-04-24T12:11:53;8.43;;;1.83;;
22476;SDS011;65006;51.698;-0.292;2023-04-24T12:14:21;6.32;;;1.63;;
22476;SDS011;65006;51.698;-0.292;2023-04-24T12:16:48;2.28;;;0.98;;
22476;SDS011;65006;51.698;-0.292;2023-04-24T12:19:21;4.80;;;1.60;;
22476;SDS011;65006;51.698;-0.292;2023-04-24T12:22:00;4.32;;;1.67;;
22476;SDS011;65006;51.698;-0.292;2023-04-24T12:24:26;4.32;;;1.42;;
22476;SDS011;65006;51.698;-0.292;2023-04-24T12:26:52;4.03;;;1.38;;
22476;SDS011;65006;51.698;-0.292;2023-04-24T12:29:19;2.45;;;1.40;;
22476;SDS011;65006;51.698;-0.292;2023-04-24T12:31:45;4.45;;;1.60;;
22476;SDS011;65006;51.698;-0.292;2023-04-24T12:34:21;3.20;;;1.40;;
22476;SDS011;65006;51.698;-0.292;2023-04-24T12:36:48;4.05;;;1.58;;
22476;SDS011;65006;51.698;-0.292;2023-04-24T12:39:15;2.25;;;1.13;;
22476;SDS011;65006;51.698;-0.292;2023-04-24T12:41:57;3.97;;;1.65;;
22476;SDS011;65006;51.698;-0.292;2023-04-24T12:46:56;3.50;;;1.33;;
22476;SDS011;65006;51.698;-0.292;2023-04-24T12:49:22;3.88;;;1.48;;
22476;SDS011;65006;51.698;-0.292;2023-04-24T12:51:48;2.50;;;1.55;;
22476;SDS011;65006;51.698;-0.292;2023-04-24T12:54:14;5.03;;;1.55;;
22476;SDS011;65006;51.698;-0.292;2023-04-24T12:56:40;3.00;;;1.35;;
22476;SDS011;65006;51.698;-0.292;2023-04-24T12:59:06;4.93;;;1.42;;
22476;SDS011;65006;51.698;-0.292;2023-04-24T13:01:32;2.88;;;1.25;;
22476;SDS011;65006;51.698;-0.292;2023-04-24T13:03:59;3.00;;;1.27;;
22476;SDS011;65006;51.698;-0.292;2023-04-24T13:06:25;3.15;;;1.63;;
22476;SDS011;65006;51.698;-0.292;2023-04-24T13:08:51;2.03;;;1.10;;
22476;SDS011;65006;51.698;-0.292;2023-04-24T13:11:17;2.92;;;1.48;;
22476;SDS011;65006;51.698;-0.292;2023-04-24T13:13:43;3.20;;;1.20;;
22476;SDS011;65006;51.698;-0.292;2023-04-24T13:16:09;3.22;;;1.48;;
22476;SDS011;65006;51.698;-0.292;2023-04-24T13:18:35;2.75;;;0.93;;
22476;SDS011;65006;51.698;-0.292;2023-04-24T13:21:01;5.50;;;1.67;;
22476;SDS011;65006;51.698;-0.292;2023-04-24T13:23:27;3.90;;;1.42;;
22476;SDS011;65006;51.698;-0.292;2023-04-24T13:25:54;5.18;;;1.42;;
22476;SDS011;65006;51.698;-0.292;2023-04-24T13:28:23;2.13;;;1.15;;
22476;SDS011;65006;51.698;-0.292;2023-04-24T13:33:15;2.97;;;1.05;;
22476;SDS011;65006;51.698;-0.292;2023-04-24T13:35:41;4.18;;;1.33;;
22476;SDS011;65006;51.698;-0.292;2023-04-24T13:38:07;1.00;;;0.90;;
22476;SDS011;65006;51.698;-0.292;2023-04-24T13:40:34;3.22;;;1.30;;
22476;SDS011;65006;51.698;-0.292;2023-04-24T13:43:00;3.92;;;1.00;;
22476;SDS011;65006;51.698;-0.292;2023-04-24T13:45:26;4.65;;;1.50;;
22476;SDS011;65006;51.698;-0.292;2023-04-24T13:47:52;2.65;;;1.25;;
22476;SDS011;65006;51.698;-0.292;2023-04-24T13:50:19;1.70;;;1.15;;
22476;SDS011;65006;51.698;-0.292;2023-04-24T13:52:45;3.97;;;1.10;;
22476;SDS011;65006;51.698;-0.292;2023-04-24T13:55:11;1.33;;;0.65;;
22476;SDS011;65006;51.698;-0.292;2023-04-24T13:57:37;2.92;;;0.80;;
22476;SDS011;65006;51.698;-0.292;2023-04-24T14:00:03;0.70;;;0.52;;
22476;SDS011;65006;51.698;-0.292;2023-04-24T14:02:34;2.17;;;0.90;;
22476;SDS011;65006;51.698;-0.292;2023-04-24T14:05:00;1.55;;;0.80;;
22476;SDS011;65006;51.698;-0.292;2023-04-24T14:07:26;3.47;;;1.02;;
22476;SDS011;65006;51.698;-0.292;2023-04-24T14:09:52;7.10;;;0.85;;
22476;SDS011;65006;51.698;-0.292;2023-04-24T14:12:18;4.47;;;0.95;;
22476;SDS011;65006;51.698;-0.292;2023-04-24T14:14:45;2.58;;;0.98;;
22476;SDS011;65006;51.698;-0.292;2023-04-24T14:17:12;3.20;;;0.88;;
22476;SDS011;65006;51.698;-0.292;2023-04-24T14:19:39;3.83;;;1.05;;
22476;SDS011;65006;51.698;-0.292;2023-04-24T14:22:05;2.17;;;1.10;;
22476;SDS011;65006;51.698;-0.292;2023-04-24T14:24:31;3.25;;;1.02;;
22476;SDS011;65006;51.698;-0.292;2023-04-24T14:26:57;3.22;;;0.90;;
22476;SDS011;65006;51.698;-0.292;2023-04-24T14:29:23;1.92;;;0.85;;
22476;SDS011;65006;51.698;-0.292;2023-04-24T14:31:50;4.10;;;1.10;;
22476;SDS011;65006;51.698;-0.292;2023-04-24T14:34:16;3.45;;;1.10;;
22476;SDS011;65006;51.698;-0.292;2023-04-24T14:36:43;3.97;;;1.00;;
22476;SDS011;65006;51.698;-0.292;2023-04-24T14:39:09;2.65;;;0.95;;
22476;SDS011;65006;51.698;-0.292;2023-04-24T14:41:35;3.72;;;0.98;;
22476;SDS011;65006;51.698;-0.292;2023-04-24T14:46:28;3.22;;;0.98;;
22476;SDS011;65006;51.698;-0.292;2023-04-24T14:48:57;4.97;;;1.40;;
22476;SDS011;65006;51.698;-0.292;2023-04-24T14:51:23;1.77;;;0.85;;
22476;SDS011;65006;51.698;-0.292;2023-04-24T14:56:16;2.55;;;1.10;;
22476;SDS011;65006;51.698;-0.292;2023-04-24T14:58:42;3.58;;;1.30;;
22476;SDS011;65006;51.698;-0.292;2023-04-24T15:01:08;5.65;;;1.20;;
22476;SDS011;65006;51.698;-0.292;2023-04-24T15:03:34;5.60;;;1.52;;
22476;SDS011;65006;51.698;-0.292;2023-04-24T15:06:00;7.53;;;1.40;;
22476;SDS011;65006;51.698;-0.292;2023-04-24T15:08:26;2.22;;;1.15;;
22476;SDS011;65006;51.698;-0.292;2023-04-24T15:10:52;6.25;;;1.38;;
22476;SDS011;65006;51.698;-0.292;2023-04-24T15:13:18;4.57;;;1.35;;
22476;SDS011;65006;51.698;-0.292;2023-04-24T15:15:48;2.90;;;1.40;;
22476;SDS011;65006;51.698;-0.292;2023-04-24T15:18:14;3.60;;;1.50;;
22476;SDS011;65006;51.698;-0.292;2023-04-24T15:20:40;4.50;;;1.52;;